Time;durP1;ratioP1;P1;durP2;ratioP2;P2;SDS_P1;SDS_P2;PMS_P1;PMS_P2;Temp;Humidity;BMP_temperature;BMP_pressure;BME280_temperature;BME280_humidity;BME280_pressure;Samples;Min_cycle;Max_cycle;Signal;HPM_P1;HPM_P2
2021/05/03 00:00:07;;;;;;;9.07;8.17;;;8.40;99.90;;;;;;6247764;28;20221;-72
2021/05/03 00:03:09;;;;;;;8.43;7.53;;;8.40;99.90;;;;;;6233191;28;21110;-73
2021/05/03 00:06:11;;;;;;;8.87;7.97;;;8.40;99.90;;;;;;6233833;28;20208;-73
2021/05/03 00:09:14;;;;;;;11.30;9.23;;;8.40;99.90;;;;;;6232834;28;20209;-73
2021/05/03 00:12:16;;;;;;;9.40;7.37;;;8.40;99.90;;;;;;6235732;28;20219;-73
2021/05/03 00:15:19;;;;;;;10.53;8.43;;;8.40;99.90;;;;;;6234124;28;20220;-73
2021/05/03 00:18:21;;;;;;;9.53;8.53;;;8.40;99.90;;;;;;6233559;28;20662;-73
2021/05/03 00:21:23;;;;;;;10.57;9.57;;;8.30;99.90;;;;;;6232829;28;20228;-73
2021/05/03 00:24:25;;;;;;;8.70;7.80;;;8.30;99.90;;;;;;6217492;28;20231;-73
2021/05/03 00:27:27;;;;;;;11.50;9.00;;;8.30;99.90;;;;;;6233835;28;20243;-73
2021/05/03 00:30:29;;;;;;;10.27;8.90;;;8.30;99.90;;;;;;6232214;28;20667;-73
2021/05/03 00:33:31;;;;;;;9.93;8.97;;;8.30;99.90;;;;;;6233450;28;20235;-73
2021/05/03 00:36:33;;;;;;;9.13;8.23;;;8.30;99.90;;;;;;6232837;28;20233;-72
2021/05/03 00:39:35;;;;;;;11.00;9.83;;;8.30;99.90;;;;;;6232745;28;20235;-73
2021/05/03 00:42:38;;;;;;;11.43;10.33;;;8.30;99.90;;;;;;6232737;28;20236;-73
2021/05/03 00:45:39;;;;;;;10.60;9.60;;;8.30;99.90;;;;;;6234330;28;20229;-73
2021/05/03 00:48:41;;;;;;;9.90;8.93;;;8.30;99.90;;;;;;6218494;28;20227;-73
2021/05/03 00:51:43;;;;;;;9.83;8.90;;;8.30;99.90;;;;;;6260491;28;20227;-73
2021/05/03 00:54:45;;;;;;;10.90;9.80;;;8.30;99.90;;;;;;6241886;28;20593;-73
2021/05/03 00:57:47;;;;;;;12.50;10.73;;;8.30;99.90;;;;;;6235771;28;20223;-73
2021/05/03 01:00:49;;;;;;;10.40;9.40;;;8.20;99.90;;;;;;6232367;28;20235;-72
2021/05/03 01:03:51;;;;;;;9.83;8.90;;;8.20;99.90;;;;;;6232496;28;20236;-73
2021/05/03 01:06:53;;;;;;;11.73;10.20;;;8.20;99.90;;;;;;6230871;28;20633;-73
2021/05/03 01:09:54;;;;;;;11.77;10.37;;;8.20;99.90;;;;;;6233494;28;20233;-72
2021/05/03 01:12:58;;;;;;;11.70;10.60;;;8.20;99.90;;;;;;6238272;28;20239;-72
2021/05/03 01:16:00;;;;;;;9.93;8.93;;;8.20;99.90;;;;;;6236351;28;20236;-72
2021/05/03 01:19:02;;;;;;;9.60;8.37;;;8.10;99.90;;;;;;6233465;28;20261;-73
2021/05/03 01:22:04;;;;;;;10.70;9.57;;;8.10;99.90;;;;;;6209352;28;20229;-72
2021/05/03 01:25:08;;;;;;;11.13;10.00;;;8.10;99.90;;;;;;6206983;28;20239;-73
2021/05/03 01:28:09;;;;;;;10.87;9.60;;;8.10;99.90;;;;;;6209026;28;20241;-72
2021/05/03 01:31:13;;;;;;;10.47;8.90;;;8.00;99.90;;;;;;6210548;28;20235;-73
2021/05/03 01:34:16;;;;;;;10.00;9.00;;;8.00;99.90;;;;;;6207924;28;20245;-73
2021/05/03 01:37:18;;;;;;;10.63;9.53;;;8.00;99.90;;;;;;6214109;28;20232;-73
2021/05/03 01:40:21;;;;;;;9.73;8.77;;;7.90;99.90;;;;;;6213920;28;20249;-73
2021/05/03 01:43:26;;;;;;;10.20;9.00;;;7.90;99.90;;;;;;6213577;28;20248;-73
2021/05/03 01:46:28;;;;;;;9.33;8.33;;;7.90;99.90;;;;;;6213274;28;20241;-73
2021/05/03 01:49:30;;;;;;;11.47;10.27;;;7.90;99.90;;;;;;6225569;28;20236;-73
2021/05/03 01:52:34;;;;;;;10.77;9.67;;;7.90;99.90;;;;;;6264563;28;20238;-73
2021/05/03 01:55:37;;;;;;;10.83;9.43;;;7.90;99.90;;;;;;6262346;28;20236;-72
2021/05/03 01:58:39;;;;;;;9.53;8.63;;;7.90;99.90;;;;;;6246891;28;20350;-72
2021/05/03 02:01:42;;;;;;;8.87;8.00;;;7.90;99.90;;;;;;6264208;28;20231;-72
2021/05/03 02:04:44;;;;;;;12.10;10.80;;;7.90;99.90;;;;;;6262452;28;20302;-72
2021/05/03 02:07:46;;;;;;;9.77;8.73;;;7.90;99.90;;;;;;6265041;28;20227;-72
2021/05/03 02:10:51;;;;;;;9.07;8.17;;;7.80;99.90;;;;;;6259892;28;20225;-73
2021/05/03 02:13:52;;;;;;;13.50;11.03;;;7.80;99.90;;;;;;6260693;28;20235;-73
2021/05/03 02:16:54;;;;;;;13.03;11.53;;;7.80;99.90;;;;;;6236087;28;20234;-73
2021/05/03 02:19:56;;;;;;;12.93;11.63;;;7.80;99.90;;;;;;6238181;28;20290;-73
2021/05/03 02:22:59;;;;;;;13.17;11.37;;;7.70;99.90;;;;;;6236705;28;20229;-73
2021/05/03 02:26:01;;;;;;;11.60;10.33;;;7.70;99.90;;;;;;6219076;28;20231;-73
2021/05/03 02:29:02;;;;;;;14.67;12.27;;;7.70;99.90;;;;;;6234224;28;20221;-73
2021/05/03 02:32:05;;;;;;;13.30;11.90;;;7.70;99.90;;;;;;6237554;28;20232;-73
2021/05/03 02:35:15;;;;;;;12.07;10.87;;;7.60;99.90;;;;;;6236013;28;20709;-73
2021/05/03 02:38:17;;;;;;;13.70;12.30;;;7.60;99.90;;;;;;6236176;28;20224;-72
2021/05/03 02:41:18;;;;;;;13.70;11.83;;;7.60;99.90;;;;;;6235092;28;20709;-72
2021/05/03 02:44:20;;;;;;;12.97;11.23;;;7.60;99.90;;;;;;6234676;28;20232;-72
2021/05/03 02:47:23;;;;;;;13.50;11.83;;;7.50;99.90;;;;;;6237424;28;20251;-73
2021/05/03 02:50:26;;;;;;;12.97;11.57;;;7.50;99.90;;;;;;6239902;28;20262;-72
2021/05/03 02:53:28;;;;;;;12.07;10.87;;;7.50;99.90;;;;;;6221251;28;20693;-73
2021/05/03 02:56:30;;;;;;;13.27;11.87;;;7.40;99.90;;;;;;6235411;28;20233;-72
2021/05/03 02:59:32;;;;;;;13.33;12.03;;;7.40;99.90;;;;;;6239131;28;20227;-72
2021/05/03 03:02:34;;;;;;;11.73;10.53;;;7.40;99.90;;;;;;6238324;28;20223;-72
2021/05/03 03:05:36;;;;;;;13.23;11.83;;;7.40;99.90;;;;;;6237459;28;20232;-72
2021/05/03 03:08:39;;;;;;;14.00;12.60;;;7.30;99.90;;;;;;6234163;28;20599;-73
2021/05/03 03:11:45;;;;;;;14.20;12.70;;;7.30;99.90;;;;;;6235707;28;20318;-72
2021/05/03 03:14:47;;;;;;;13.77;11.70;;;7.20;99.90;;;;;;6238345;28;20709;-72
2021/05/03 03:17:51;;;;;;;13.50;11.50;;;7.20;99.90;;;;;;6241269;28;20235;-73
2021/05/03 03:20:53;;;;;;;11.33;10.13;;;7.20;99.90;;;;;;6221835;28;20239;-72
2021/05/03 03:23:55;;;;;;;11.60;10.40;;;7.20;99.90;;;;;;6237374;28;20228;-72
2021/05/03 03:26:57;;;;;;;12.40;10.30;;;7.20;99.90;;;;;;6234310;28;20720;-72
2021/05/03 03:29:59;;;;;;;10.77;9.23;;;7.10;99.90;;;;;;6236656;28;20236;-72
2021/05/03 03:33:01;;;;;;;15.10;12.53;;;7.10;99.90;;;;;;6233750;28;20232;-72
2021/05/03 03:36:05;;;;;;;10.97;9.80;;;7.00;99.90;;;;;;6237779;28;20215;-72
2021/05/03 03:39:07;;;;;;;13.40;10.93;;;7.00;99.90;;;;;;6256713;28;20208;-72
2021/05/03 03:42:09;;;;;;;14.87;11.77;;;6.90;99.90;;;;;;6219845;28;21739;-73
2021/05/03 03:45:13;;;;;;;14.53;12.17;;;6.80;99.90;;;;;;6233378;28;20242;-73
2021/05/03 03:48:15;;;;;;;13.13;11.77;;;6.80;99.90;;;;;;6236429;28;20220;-72
2021/05/03 03:51:17;;;;;;;13.13;11.07;;;6.70;99.90;;;;;;6235757;28;20673;-72
2021/05/03 03:54:19;;;;;;;14.10;11.77;;;6.70;99.90;;;;;;6238935;28;20214;-72
2021/05/03 03:57:21;;;;;;;12.03;10.83;;;6.60;99.90;;;;;;6235288;28;20303;-72
2021/05/03 04:00:24;;;;;;;14.67;13.17;;;6.50;99.90;;;;;;6232782;28;20698;-73
2021/05/03 04:03:26;;;;;;;15.00;13.40;;;6.50;99.90;;;;;;6234897;28;20637;-72
2021/05/03 04:23:10;;;;;;;16.13;14.20;;;6.50;99.90;;;;;;6261306;28;20234;-72
2021/05/03 04:26:15;;;;;;;20.97;17.20;;;6.50;99.90;;;;;;6262801;28;20223;-73
2021/05/03 04:29:18;;;;;;;16.83;14.43;;;6.50;99.90;;;;;;6260720;28;20234;-73
2021/05/03 04:32:20;;;;;;;15.53;13.90;;;6.50;99.90;;;;;;6259566;28;20753;-72
2021/05/03 04:35:22;;;;;;;18.60;16.63;;;6.50;99.90;;;;;;6257031;28;20227;-72
2021/05/03 04:38:24;;;;;;;16.97;14.67;;;6.60;99.90;;;;;;6243985;28;20219;-72
2021/05/03 04:41:26;;;;;;;16.97;13.60;;;6.60;99.90;;;;;;6261780;28;20230;-72
2021/05/03 04:44:28;;;;;;;17.87;15.27;;;6.60;99.90;;;;;;6259268;28;20235;-72
2021/05/03 04:47:30;;;;;;;18.80;15.53;;;6.60;99.90;;;;;;6257527;28;20231;-72
2021/05/03 04:50:32;;;;;;;16.67;14.67;;;6.60;99.90;;;;;;6260915;28;20235;-72
2021/05/03 04:53:34;;;;;;;15.73;13.30;;;6.60;99.90;;;;;;6262172;28;20235;-72
2021/05/03 04:56:36;;;;;;;15.80;13.27;;;6.60;99.90;;;;;;6259831;28;20222;-72
2021/05/03 04:59:38;;;;;;;15.73;13.87;;;6.60;99.90;;;;;;6259512;28;20227;-72
2021/05/03 05:02:40;;;;;;;14.00;12.60;;;6.60;99.90;;;;;;6260929;28;20703;-73
2021/05/03 05:05:45;;;;;;;16.20;13.00;;;6.70;99.90;;;;;;6255762;28;20284;-72
2021/05/03 05:08:47;;;;;;;13.93;12.00;;;6.70;99.90;;;;;;6261668;28;20237;-72
2021/05/03 05:11:49;;;;;;;13.20;11.80;;;6.70;99.90;;;;;;6267462;28;20230;-72
2021/05/03 05:14:51;;;;;;;14.37;12.87;;;6.80;99.90;;;;;;6257590;28;20223;-72
2021/05/03 05:17:53;;;;;;;13.23;11.83;;;6.70;99.90;;;;;;6236887;28;20235;-72
2021/05/03 05:20:55;;;;;;;12.57;11.27;;;6.70;99.90;;;;;;6236418;28;20226;-73
2021/05/03 05:23:57;;;;;;;14.37;12.47;;;6.80;99.90;;;;;;6240473;28;20219;-73
2021/05/03 05:26:59;;;;;;;13.87;11.07;;;6.80;99.90;;;;;;6236898;28;20234;-73
2021/05/03 05:30:01;;;;;;;12.33;11.07;;;6.80;99.90;;;;;;6239286;28;20598;-73
2021/05/03 05:33:03;;;;;;;12.93;11.63;;;6.80;99.90;;;;;;6235373;28;20626;-72
2021/05/03 05:36:05;;;;;;;14.87;11.93;;;6.90;99.90;;;;;;6219836;28;20199;-73
2021/05/03 05:39:08;;;;;;;11.40;10.20;;;6.90;99.90;;;;;;6235313;28;20219;-73
2021/05/03 05:42:10;;;;;;;12.57;11.20;;;7.00;99.90;;;;;;6236686;28;20266;-73
2021/05/03 05:45:12;;;;;;;13.60;11.47;;;7.00;99.90;;;;;;6233645;28;20223;-72
2021/05/03 05:48:14;;;;;;;13.20;11.73;;;7.10;99.90;;;;;;6234689;28;20231;-73
2021/05/03 05:51:16;;;;;;;12.13;10.90;;;7.10;99.90;;;;;;6256604;28;20230;-73
2021/05/03 05:54:18;;;;;;;13.37;11.10;;;7.20;99.90;;;;;;6259480;28;20222;-73
2021/05/03 05:57:21;;;;;;;11.53;10.23;;;7.20;99.90;;;;;;6261160;28;20222;-73
2021/05/03 06:00:23;;;;;;;10.60;9.50;;;7.30;99.90;;;;;;6261012;28;20234;-73
2021/05/03 06:03:26;;;;;;;13.63;10.53;;;7.40;99.90;;;;;;6260899;28;20612;-73
2021/05/03 06:06:28;;;;;;;11.90;9.80;;;7.40;99.90;;;;;;6261167;28;20231;-72
2021/05/03 06:09:30;;;;;;;12.17;9.40;;;7.50;99.90;;;;;;6257286;28;20727;-73
2021/05/03 06:12:32;;;;;;;11.10;9.47;;;7.50;99.90;;;;;;6259331;28;20227;-72
2021/05/03 06:15:34;;;;;;;12.50;10.90;;;7.60;99.90;;;;;;6245144;28;20227;-73
2021/05/03 06:18:36;;;;;;;10.33;9.20;;;7.60;99.90;;;;;;6234162;28;20232;-72
2021/05/03 06:21:38;;;;;;;11.33;9.60;;;7.70;99.90;;;;;;6260714;28;20231;-73
2021/05/03 06:24:40;;;;;;;11.47;9.60;;;7.70;99.90;;;;;;6258233;28;20240;-73
2021/05/03 06:27:42;;;;;;;11.80;9.07;;;7.80;99.90;;;;;;6257250;28;20591;-73
2021/05/03 06:30:46;;;;;;;10.90;8.47;;;7.80;99.90;;;;;;6258148;28;20295;-73
2021/05/03 06:33:48;;;;;;;9.43;8.40;;;7.90;99.90;;;;;;6258441;28;20722;-73
2021/05/03 06:36:50;;;;;;;9.60;8.03;;;7.90;99.90;;;;;;6257560;28;20239;-72
2021/05/03 06:39:52;;;;;;;9.03;7.57;;;8.00;99.90;;;;;;6233578;28;20240;-72
2021/05/03 06:42:54;;;;;;;10.97;8.83;;;8.10;99.90;;;;;;6247726;28;20725;-72
2021/05/03 06:45:58;;;;;;;9.30;7.77;;;8.30;99.90;;;;;;6248832;28;20243;-72
2021/05/03 06:49:00;;;;;;;9.30;7.97;;;8.40;99.90;;;;;;6233252;28;20231;-73
2021/05/03 06:52:02;;;;;;;9.70;7.73;;;8.60;99.90;;;;;;6232735;28;20232;-72
2021/05/03 06:55:05;;;;;;;10.13;7.57;;;8.70;99.90;;;;;;6231781;28;20262;-73
2021/05/03 06:58:07;;;;;;;9.87;7.13;;;8.90;99.90;;;;;;6231882;28;20239;-72
2021/05/03 07:01:09;;;;;;;9.27;7.23;;;9.10;99.10;;;;;;6248117;28;20233;-73
2021/05/03 07:04:11;;;;;;;6.57;5.63;;;9.30;97.00;;;;;;6223577;28;20248;-72
2021/05/03 07:07:13;;;;;;;9.03;6.23;;;9.40;98.10;;;;;;6208788;28;20268;-73
2021/05/03 07:10:15;;;;;;;8.07;5.93;;;9.60;97.20;;;;;;6207521;28;20733;-73
2021/05/03 07:13:18;;;;;;;9.00;6.57;;;9.70;96.90;;;;;;6209425;28;20248;-73
2021/05/03 07:16:19;;;;;;;7.07;6.37;;;9.80;96.10;;;;;;6236357;28;20748;-73
2021/05/03 07:19:21;;;;;;;6.00;5.20;;;9.90;96.10;;;;;;6242695;28;20664;-72
2021/05/03 07:22:23;;;;;;;8.53;6.20;;;10.10;94.00;;;;;;6214339;28;20237;-72
2021/05/03 07:25:25;;;;;;;8.87;6.37;;;10.40;93.70;;;;;;6232808;28;20869;-74
2021/05/03 07:28:27;;;;;;;7.03;5.70;;;10.70;92.20;;;;;;6231135;28;20242;-73
2021/05/03 07:31:30;;;;;;;5.80;4.90;;;10.80;90.60;;;;;;6232009;28;20236;-73
2021/05/03 07:34:32;;;;;;;5.07;4.57;;;10.70;88.50;;;;;;6232048;28;20346;-73
2021/05/03 07:37:34;;;;;;;5.97;5.30;;;10.90;89.30;;;;;;6230212;28;20594;-72
2021/05/03 07:40:36;;;;;;;5.17;4.67;;;11.20;88.20;;;;;;6231169;28;20754;-73
2021/05/03 07:43:38;;;;;;;5.87;4.97;;;11.30;83.80;;;;;;6232570;28;20581;-73
2021/05/03 07:46:41;;;;;;;6.90;4.93;;;11.60;80.50;;;;;;6230211;28;20235;-74
2021/05/03 07:49:43;;;;;;;5.33;4.70;;;12.00;79.20;;;;;;6240786;28;20261;-74
2021/05/03 07:52:44;;;;;;;4.50;4.10;;;12.00;72.90;;;;;;6257206;28;20222;-72
2021/05/03 07:55:46;;;;;;;4.83;4.40;;;12.10;75.80;;;;;;6255748;28;20223;-73
2021/05/03 07:58:49;;;;;;;5.70;5.10;;;12.40;76.40;;;;;;6256993;28;20238;-74
2021/05/03 08:01:51;;;;;;;5.27;4.77;;;12.70;73.50;;;;;;6230870;28;20232;-73
2021/05/03 08:04:54;;;;;;;4.83;4.37;;;12.70;73.40;;;;;;6229882;28;20687;-73
2021/05/03 08:07:55;;;;;;;4.33;3.60;;;12.70;73.50;;;;;;6231817;28;20235;-74
2021/05/03 08:10:57;;;;;;;4.90;4.40;;;12.80;68.90;;;;;;6232321;28;20233;-74
2021/05/03 08:14:00;;;;;;;7.23;4.73;;;13.00;70.10;;;;;;6246237;28;20225;-74
2021/05/03 08:17:09;;;;;;;4.90;4.23;;;13.40;70.40;;;;;;6230699;28;20230;-72
2021/05/03 08:20:17;;;;;;;6.87;4.43;;;13.20;65.30;;;;;;6249223;28;20252;-73
2021/05/03 08:23:20;;;;;;;4.67;3.77;;;13.20;67.10;;;;;;6255995;28;20788;-73
2021/05/03 08:26:23;;;;;;;6.40;4.97;;;13.40;68.40;;;;;;6254501;28;20229;-73
2021/05/03 08:29:25;;;;;;;8.10;4.73;;;13.20;65.20;;;;;;6256387;28;20632;-73
2021/05/03 08:32:27;;;;;;;4.87;4.37;;;13.20;68.10;;;;;;6253900;28;20241;-73
2021/05/03 08:35:30;;;;;;;5.30;4.03;;;13.40;67.70;;;;;;6254385;28;20224;-73
2021/05/03 08:38:32;;;;;;;4.77;4.00;;;13.60;63.30;;;;;;6254831;28;20232;-73
2021/05/03 08:41:34;;;;;;;4.47;4.07;;;13.70;64.30;;;;;;6256301;28;20226;-73
2021/05/03 08:44:36;;;;;;;4.40;3.80;;;14.00;61.90;;;;;;6257301;28;20246;-73
2021/05/03 08:47:51;;;;;;;5.17;3.97;;;14.50;64.60;;;;;;6259349;28;20241;-73
2021/05/03 08:54:24;;;;;;;5.13;3.90;;;14.40;57.60;;;;;;6260555;28;20593;-73
2021/05/03 08:57:23;;;;;;;5.77;3.80;;;14.30;57.30;;;;;;6261236;28;20237;-73
2021/05/03 09:00:26;;;;;;;3.67;3.30;;;14.60;56.80;;;;;;6261766;28;20695;-73
2021/05/03 09:03:29;;;;;;;3.17;2.87;;;15.10;58.10;;;;;;6259774;28;20233;-73
2021/05/03 09:06:34;;;;;;;4.13;2.90;;;15.50;58.00;;;;;;6263278;28;20580;-73
2021/05/03 09:09:41;;;;;;;2.50;2.30;;;15.90;54.30;;;;;;6252194;28;20592;-73
2021/05/03 09:12:43;;;;;;;3.60;2.77;;;16.20;55.00;;;;;;6235607;28;20243;-73
2021/05/03 09:15:45;;;;;;;3.57;2.53;;;16.70;53.70;;;;;;6234909;28;20219;-73
2021/05/03 09:18:48;;;;;;;3.23;2.63;;;17.10;54.30;;;;;;6235710;28;20223;-73
2021/05/03 09:21:50;;;;;;;3.53;3.20;;;17.40;51.90;;;;;;6260037;28;20224;-74
2021/05/03 09:24:52;;;;;;;3.40;3.10;;;17.70;49.50;;;;;;6260708;28;20596;-73
2021/05/03 09:28:04;;;;;;;3.67;3.27;;;17.30;48.90;;;;;;6258098;28;20587;-74
2021/05/03 09:31:06;;;;;;;4.60;3.10;;;17.00;49.30;;;;;;6259655;28;20235;-74
2021/05/03 09:34:29;;;;;;;3.23;2.90;;;16.60;49.60;;;;;;6259142;28;20227;-73
2021/05/03 09:37:34;;;;;;;3.47;3.17;;;16.30;49.50;;;;;;6257926;28;20251;-74
2021/05/03 09:40:36;;;;;;;3.90;2.20;;;16.60;49.30;;;;;;6260051;28;20922;-73
2021/05/03 09:43:41;;;;;;;2.97;2.30;;;16.80;50.20;;;;;;6258308;28;20572;-73
2021/05/03 09:46:46;;;;;;;2.73;2.30;;;17.20;48.20;;;;;;6257670;28;20237;-74
2021/05/03 09:49:49;;;;;;;2.60;2.33;;;17.60;47.00;;;;;;6256437;28;20230;-74
2021/05/03 09:53:10;;;;;;;3.17;2.87;;;17.80;47.20;;;;;;6258975;28;20235;-73
2021/05/03 09:56:12;;;;;;;3.30;3.00;;;17.90;47.00;;;;;;6258235;28;20228;-74
2021/05/03 09:59:33;;;;;;;5.57;2.87;;;17.80;46.40;;;;;;6240877;28;20228;-74
2021/05/03 10:02:36;;;;;;;3.20;2.70;;;17.90;47.00;;;;;;6258800;28;20227;-74
2021/05/03 10:05:59;;;;;;;4.33;3.10;;;18.20;46.60;;;;;;6256639;28;20366;-74
2021/05/03 10:09:01;;;;;;;3.50;3.10;;;18.50;45.60;;;;;;6250146;28;20247;-73
2021/05/03 10:12:04;;;;;;;5.53;3.00;;;18.20;44.40;;;;;;6234309;28;20222;-73
2021/05/03 10:15:09;;;;;;;5.00;2.83;;;18.30;44.40;;;;;;6234578;28;20223;-73
2021/05/03 10:18:15;;;;;;;4.07;2.77;;;18.10;44.80;;;;;;6232840;28;20216;-73
2021/05/03 10:21:17;;;;;;;3.70;3.13;;;17.70;45.40;;;;;;6255746;28;20222;-74
2021/05/03 10:24:20;;;;;;;2.90;2.30;;;17.70;43.50;;;;;;6256783;28;20306;-73
2021/05/03 10:27:24;;;;;;;2.53;2.33;;;18.00;46.40;;;;;;6259047;28;20228;-73
2021/05/03 10:30:28;;;;;;;3.57;2.30;;;18.50;45.40;;;;;;6257587;28;20215;-73
2021/05/03 10:33:35;;;;;;;2.50;2.30;;;19.00;44.60;;;;;;6257273;28;20238;-73
2021/05/03 10:36:39;;;;;;;4.17;2.63;;;19.40;43.90;;;;;;6256673;28;20692;-74
2021/05/03 10:39:41;;;;;;;1.97;1.80;;;19.50;42.90;;;;;;6256868;28;20227;-73
2021/05/03 10:43:07;;;;;;;3.50;3.20;;;19.80;43.80;;;;;;6237123;28;20220;-73
2021/05/03 10:46:55;;;;;;;3.40;2.53;;;20.10;42.30;;;;;;6227271;28;20240;-73
2021/05/03 10:49:44;;;;;;;2.57;2.37;;;19.70;43.00;;;;;;6233765;28;20236;-73
2021/05/03 10:52:46;;;;;;;4.17;2.10;;;20.00;43.90;;;;;;6257593;28;20243;-73
2021/05/03 10:55:54;;;;;;;2.93;1.97;;;20.40;42.10;;;;;;6254872;28;20230;-73
2021/05/03 10:58:56;;;;;;;4.07;2.80;;;20.00;42.80;;;;;;6258085;28;20247;-73
2021/05/03 11:01:59;;;;;;;3.43;3.10;;;19.30;41.40;;;;;;6255919;28;20227;-74
2021/05/03 11:05:27;;;;;;;2.90;2.60;;;18.00;41.10;;;;;;6257685;28;20723;-74
2021/05/03 11:08:29;;;;;;;4.70;2.83;;;17.40;43.80;;;;;;6254757;28;20636;-73
2021/05/03 11:11:45;;;;;;;2.50;2.30;;;17.20;45.40;;;;;;6230698;28;20719;-73
2021/05/03 11:15:15;;;;;;;4.33;3.07;;;17.70;45.40;;;;;;6230261;28;20227;-74
2021/05/03 11:18:25;;;;;;;3.80;2.67;;;18.40;44.40;;;;;;6231296;28;20239;-73
2021/05/03 11:21:48;;;;;;;3.00;2.43;;;19.10;42.40;;;;;;6254984;28;20592;-74
2021/05/03 11:25:01;;;;;;;3.00;2.67;;;19.90;42.00;;;;;;6250986;28;20275;-73
2021/05/03 11:28:31;;;;;;;3.33;3.03;;;20.20;41.00;;;;;;6231204;28;20227;-73
2021/05/03 11:31:30;;;;;;;2.23;2.00;;;20.20;40.40;;;;;;6233464;28;20974;-73
2021/05/03 11:34:42;;;;;;;4.30;3.07;;;20.20;42.40;;;;;;6232323;28;20624;-73
2021/05/03 11:38:00;;;;;;;2.93;2.57;;;19.50;41.10;;;;;;6231117;28;20238;-73
2021/05/03 11:44:29;;;;;;;5.17;3.57;;;18.20;44.00;;;;;;6231944;28;20241;-72
2021/05/03 11:47:34;;;;;;;3.00;2.57;;;18.50;42.20;;;;;;6232225;28;20559;-73
2021/05/03 11:50:36;;;;;;;2.27;2.07;;;18.80;41.50;;;;;;6247440;28;20231;-73
2021/05/03 11:53:43;;;;;;;2.90;2.60;;;19.10;42.30;;;;;;6255433;28;20222;-73
2021/05/03 11:56:45;;;;;;;3.77;2.50;;;19.20;40.50;;;;;;6255484;28;20590;-73
2021/05/03 12:00:02;;;;;;;5.70;2.47;;;19.30;40.10;;;;;;6246205;28;20241;-72
2021/05/03 12:03:11;;;;;;;2.93;2.20;;;19.40;40.60;;;;;;6231269;28;20224;-73
2021/05/03 12:06:40;;;;;;;2.23;2.03;;;19.30;40.60;;;;;;6245922;28;20786;-73
2021/05/03 12:09:43;;;;;;;2.93;2.30;;;19.70;41.20;;;;;;6231908;28;20566;-73
2021/05/03 12:12:49;;;;;;;1.83;1.73;;;19.60;37.30;;;;;;6231391;28;20727;-73
2021/05/03 12:15:51;;;;;;;2.90;1.97;;;20.10;41.30;;;;;;6231117;28;20602;-73
2021/05/03 12:18:53;;;;;;;2.60;2.40;;;20.70;39.70;;;;;;6232301;28;20716;-73
2021/05/03 12:22:01;;;;;;;2.60;2.30;;;20.90;37.90;;;;;;6254337;28;20708;-74
2021/05/03 12:25:10;;;;;;;2.47;2.10;;;20.70;38.10;;;;;;6255501;28;20257;-73
2021/05/03 12:28:15;;;;;;;2.40;2.10;;;20.10;38.60;;;;;;6255485;28;20317;-74
2021/05/03 12:31:16;;;;;;;1.97;1.80;;;20.30;37.10;;;;;;6255525;28;20691;-74
2021/05/03 12:34:23;;;;;;;2.30;2.10;;;20.20;38.30;;;;;;6254964;28;20234;-74
2021/05/03 12:37:30;;;;;;;2.70;2.17;;;20.00;37.80;;;;;;6257118;28;20269;-74
2021/05/03 12:40:35;;;;;;;2.60;2.40;;;20.00;37.10;;;;;;6253719;28;20235;-74
2021/05/03 12:43:39;;;;;;;2.67;2.13;;;20.10;37.70;;;;;;6254026;28;20245;-73
2021/05/03 12:46:43;;;;;;;2.30;1.97;;;20.10;36.70;;;;;;6256049;28;20720;-74
2021/05/03 12:49:56;;;;;;;3.03;2.00;;;20.10;37.60;;;;;;6252755;28;20230;-73
2021/05/03 12:59:46;;;;;;;2.40;2.20;;;19.40;38.70;;;;;;6255539;28;20231;-74
2021/05/03 13:03:15;;;;;;;2.10;1.90;;;19.30;38.30;;;;;;6237864;28;20722;-74
2021/05/03 13:22:30;;;;;;;3.17;2.47;;;19.80;39.60;;;;;;6230896;28;20227;-73
2021/05/03 13:23:25;;;;;;;1.67;1.57;;;19.50;38.10;;;;;;6232163;28;20868;-73
2021/05/03 13:29:43;;;;;;;5.27;2.30;;;20.40;40.50;;;;;;6229934;28;20705;-73
2021/05/03 13:32:45;;;;;;;2.83;2.57;;;20.90;37.80;;;;;;6234530;28;20247;-74
2021/05/03 13:35:47;;;;;;;3.30;2.53;;;20.30;38.00;;;;;;6233489;28;20224;-74
2021/05/03 13:38:50;;;;;;;2.53;2.27;;;20.30;37.90;;;;;;6234584;28;20231;-73
2021/05/03 13:41:52;;;;;;;2.57;2.10;;;20.60;39.50;;;;;;6235272;28;20232;-73
2021/05/03 13:44:54;;;;;;;2.00;1.90;;;21.40;39.10;;;;;;6232653;28;20238;-73
2021/05/03 13:47:56;;;;;;;2.13;2.03;;;22.50;36.30;;;;;;6233855;28;20370;-74
2021/05/03 13:50:58;;;;;;;2.97;2.30;;;22.50;36.30;;;;;;6252934;28;20223;-73
2021/05/03 13:54:02;;;;;;;2.27;2.07;;;22.00;36.30;;;;;;6259492;28;20234;-73
2021/05/03 13:57:07;;;;;;;2.10;1.90;;;22.10;36.80;;;;;;6240803;28;20223;-73
2021/05/03 14:00:10;;;;;;;3.57;2.43;;;22.30;35.50;;;;;;6259653;28;20241;-73
2021/05/03 14:03:13;;;;;;;2.27;2.07;;;23.00;35.20;;;;;;6262129;28;20218;-73
2021/05/03 14:06:18;;;;;;;2.87;2.57;;;23.50;33.40;;;;;;6263257;28;20231;-74
2021/05/03 14:09:21;;;;;;;2.53;2.10;;;24.20;33.40;;;;;;6249280;28;20214;-73
2021/05/03 14:12:23;;;;;;;3.60;2.20;;;24.00;32.70;;;;;;6235342;28;20246;-73
2021/05/03 14:15:26;;;;;;;2.30;2.10;;;24.30;33.20;;;;;;6234262;28;20232;-74
2021/05/03 14:18:29;;;;;;;1.77;1.60;;;23.90;33.00;;;;;;6231229;28;20223;-73
2021/05/03 14:21:31;;;;;;;2.37;1.80;;;24.20;33.20;;;;;;6254124;28;20230;-72
2021/05/03 14:24:33;;;;;;;2.20;1.97;;;24.80;33.20;;;;;;6258638;28;20277;-73
2021/05/03 14:27:38;;;;;;;2.03;1.90;;;25.10;31.60;;;;;;6257346;28;20227;-74
2021/05/03 14:34:04;;;;;;;2.43;1.63;;;24.60;31.40;;;;;;6257839;28;20226;-73
2021/05/03 14:37:06;;;;;;;1.40;1.30;;;23.70;32.20;;;;;;6255347;28;20641;-73
2021/05/03 14:40:08;;;;;;;2.03;1.90;;;23.70;33.40;;;;;;6233996;28;20239;-72
2021/05/03 14:43:11;;;;;;;1.73;1.40;;;23.90;32.60;;;;;;6231205;28;20232;-73
2021/05/03 14:46:29;;;;;;;1.73;1.50;;;24.40;33.10;;;;;;6230535;28;20242;-72
2021/05/03 14:55:47;;;;;;;1.80;1.70;;;26.00;29.10;;;;;;6232459;28;20605;-73
2021/05/03 14:58:50;;;;;;;1.40;1.30;;;26.10;29.00;;;;;;6232567;28;20267;-72
2021/05/03 15:01:51;;;;;;;1.80;1.60;;;26.40;29.20;;;;;;6232203;28;20239;-73
2021/05/03 15:04:53;;;;;;;1.20;1.10;;;26.50;28.40;;;;;;6233396;28;20273;-72
2021/05/03 15:07:55;;;;;;;1.60;1.50;;;26.60;29.30;;;;;;6231776;28;20224;-72
2021/05/03 15:10:57;;;;;;;1.63;1.40;;;27.20;28.40;;;;;;6208664;28;20228;-72
2021/05/03 15:14:09;;;;;;;1.60;1.50;;;27.40;28.00;;;;;;6222444;28;20798;-73
2021/05/03 15:21:21;;;;;;;1.80;1.70;;;27.80;28.40;;;;;;6222348;28;20228;-73
2021/05/03 15:23:47;;;;;;;3.80;2.23;;;27.10;28.00;;;;;;6230300;28;20693;-73
2021/05/03 15:26:53;;;;;;;1.90;1.70;;;25.30;29.30;;;;;;6231643;28;20231;-72
2021/05/03 15:30:13;;;;;;;3.00;1.80;;;25.10;29.50;;;;;;6231981;28;20240;-73
2021/05/03 15:36:36;;;;;;;2.37;1.90;;;23.60;30.80;;;;;;6240518;28;20236;-72
2021/05/03 15:39:39;;;;;;;2.00;1.90;;;21.80;33.20;;;;;;6233213;28;20239;-72
2021/05/03 15:42:43;;;;;;;1.80;1.70;;;20.30;35.00;;;;;;6230314;28;20231;-72
2021/05/03 15:45:49;;;;;;;3.13;2.33;;;19.30;36.70;;;;;;6230395;28;20262;-72
2021/05/03 15:48:51;;;;;;;3.53;2.27;;;18.20;38.00;;;;;;6231198;28;20227;-72
2021/05/03 15:51:53;;;;;;;1.70;1.60;;;18.10;39.70;;;;;;6230478;28;20246;-71
2021/05/03 15:54:55;;;;;;;4.50;2.30;;;19.10;38.50;;;;;;6229342;28;20304;-73
2021/05/03 16:02:33;;;;;;;2.67;2.13;;;18.20;38.50;;;;;;6206939;28;20297;-72
2021/05/03 16:05:37;;;;;;;2.23;2.03;;;17.50;40.50;;;;;;6206303;28;20605;-72
2021/05/03 16:08:39;;;;;;;2.33;2.13;;;16.70;41.20;;;;;;6205322;28;20286;-72
2021/05/03 16:11:42;;;;;;;2.53;2.23;;;16.10;41.80;;;;;;6212483;28;20241;-72
2021/05/03 16:14:43;;;;;;;3.13;2.80;;;15.80;42.70;;;;;;6230466;28;20326;-72
2021/05/03 16:17:45;;;;;;;3.13;2.60;;;15.70;44.50;;;;;;6229065;28;20322;-72
2021/05/03 16:20:47;;;;;;;2.60;1.97;;;15.60;43.50;;;;;;6246331;28;20758;-72
2021/05/03 16:23:49;;;;;;;3.43;2.70;;;15.40;43.80;;;;;;6255579;28;20231;-72
2021/05/03 16:26:52;;;;;;;2.90;2.60;;;15.20;45.10;;;;;;6255880;28;20234;-72
2021/05/03 16:29:53;;;;;;;2.93;2.23;;;15.10;44.90;;;;;;6255925;28;20256;-72
2021/05/03 16:32:55;;;;;;;2.47;2.10;;;15.00;43.90;;;;;;6247135;28;20301;-71
2021/05/03 16:35:57;;;;;;;2.70;2.23;;;15.00;44.60;;;;;;6230650;28;20231;-72
2021/05/03 16:38:59;;;;;;;2.33;2.13;;;15.00;44.50;;;;;;6215627;28;20317;-72
2021/05/03 16:42:01;;;;;;;1.73;1.63;;;14.80;44.00;;;;;;6204951;28;20359;-71
2021/05/03 16:45:03;;;;;;;2.03;1.83;;;14.60;44.10;;;;;;6206513;28;20310;-72
2021/05/03 16:48:06;;;;;;;1.80;1.70;;;14.40;45.50;;;;;;6206504;28;20570;-72
2021/05/03 16:51:09;;;;;;;2.00;1.80;;;14.20;45.40;;;;;;6227068;28;20230;-71
2021/05/03 16:54:11;;;;;;;2.43;1.70;;;14.10;45.80;;;;;;6232672;28;20285;-71
2021/05/03 16:57:13;;;;;;;1.93;1.73;;;14.00;46.60;;;;;;6229861;28;20222;-71
2021/05/03 17:00:17;;;;;;;1.40;1.30;;;13.70;46.20;;;;;;6229513;28;20209;-71
2021/05/03 17:03:19;;;;;;;1.87;1.70;;;13.60;46.90;;;;;;6230848;28;20221;-72